Airfield :
LOGIN :

Register | Disclaimer

   EN    FR    IT 

 










Legend :    VFR   Marginal VFR   IFR   Intensive IFR   Very Intensive IFR
Visi :
Ceiling :
>= 8 km
>= 3000ft
5 to 8 km
1000 to 3000 ft
1500m to 5 km
500 to 1000 ft
800 to 1500m
200 to 500 ft
< 800m
< 200 ft
Symbols :   Thunderstorms  Fog  Heavy snow  Heavy precipitations  Wind > 20 kt
SIGMETs :     Misc.  Thunderstorms  Icing  Turbulence  Mountain Waves  Volcanic Ashes






- Airport Elevation : 794 ft


LKCV - Čáslav Air Base

CURRENT METAR :
  • 232100Z 04004KT CAVOK 20/16 Q1017 NOSIG RMK BLU BLU

EXPIRED METARs :
  • 232030Z 35004KT 320V030 9999 FEW040 SCT230 20/16 Q1017 NOSIG RMK BLU BLU
  • 232000Z 33005KT 9999 FEW026 SCT230 19/17 Q1018 NOSIG RMK BLU BLU
  • 231930Z 30005KT 9999 SCT026 BKN034 20/17 Q1018 NOSIG RMK BLU BLU
  • 231900Z 30004KT 9999 BKN031 21/17 Q1017 NOSIG RMK BLU BLU
  • 231830Z 30005KT 9999 BKN032 22/17 Q1018 NOSIG RMK BLU BLU

TAF TAF LKCV
Valid from the 23 at 18:00 until the 24 at 18:00 UTC


231700Z 2318/2418 31010KT 9999 SCT030
TEMPO 2321/2406 35020G36KT 3000 TSRA SCT007 BKN014CB
PROB30
TEMPO 2321/2403 2000 TSGR BKN006CB
BECMG 2404/2407 28008KT BKN010
BECMG 2411/2414 33006KT SCT030
TEMPO 2412/2418 7000 SHRA BKN020TCU



MET'MAP, your aeronautical weather chart ! - Copyright ORBIFLY December 2007 - Disclaimer

ORBIFLY MET'MAP TEAM :

Programming & Development : Alexandra Zaïnal
Concept & original design : Baudouin d'Aumeries
Assistance for programming : Marc-Olivier Méhu
Technical & hardware support : Manuel Goepfert

Contact : metmap@orbifly.com




SOURCES & CREDITS :

   NOAA